Unadilla, Georgia
Current Conditions -  °F | °C
As of 2:35 AM on Monday 22 Dec 2014 (Local Time) from KPXE Reporting Station
Haze Haze  
Wind Chill: 50°   Ceiling: 400
Heat Index: 50°   Visibility: 2.5mi
Dew Point: 48°   Wind: 6mph
Humidity: 91%   Direction: 70°ENE
Pressure: 30.05"   Gusts: NA
Location:  32.26°N, 83.74°W
Report Text: KPXE 220735Z AUTO 07005KT 2 1/2SM BR OVC004 10/09 A3005 RMK AO2 T01010087
Loading
Personal Weather Stations






























Interactive Weather Map New forecast layout! Learn more

10-Day Weather Forecast

Advertisements
Track Severe Weather on mobile